sensor_id;sensor_type;location;lat;lon;timestamp;pressure;altitude;pressure_sealevel;temperature;humidity
84752;BME280;74978;37.772;-122.432;2024-03-17T00:00:45;101120.36;;;10.86;63.07
84752;BME280;74978;37.772;-122.432;2024-03-17T00:03:10;101118.11;;;11.62;61.82
84752;BME280;74978;37.772;-122.432;2024-03-17T00:05:36;101116.16;;;11.38;62.53
84752;BME280;74978;37.772;-122.432;2024-03-17T00:08:01;101117.30;;;11.05;62.77
84752;BME280;74978;37.772;-122.432;2024-03-17T00:10:27;101118.86;;;10.15;66.23
84752;BME280;74978;37.772;-122.432;2024-03-17T00:12:52;101116.26;;;10.48;64.29
84752;BME280;74978;37.772;-122.432;2024-03-17T00:15:18;101115.31;;;10.91;63.50
84752;BME280;74978;37.772;-122.432;2024-03-17T00:17:43;101113.68;;;10.85;64.75
84752;BME280;74978;37.772;-122.432;2024-03-17T00:20:10;101120.99;;;10.53;65.18
84752;BME280;74978;37.772;-122.432;2024-03-17T00:22:35;101122.70;;;10.29;63.63
84752;BME280;74978;37.772;-122.432;2024-03-17T00:25:00;101119.28;;;10.05;65.08
84752;BME280;74978;37.772;-122.432;2024-03-17T00:27:25;101124.21;;;10.42;63.88
84752;BME280;74978;37.772;-122.432;2024-03-17T00:29:51;101129.99;;;10.05;65.71
84752;BME280;74978;37.772;-122.432;2024-03-17T00:32:16;101121.16;;;10.24;65.24
84752;BME280;74978;37.772;-122.432;2024-03-17T00:34:42;101123.66;;;10.31;65.22
84752;BME280;74978;37.772;-122.432;2024-03-17T00:37:08;101124.40;;;9.94;66.21
84752;BME280;74978;37.772;-122.432;2024-03-17T00:39:33;101125.73;;;9.96;65.43
84752;BME280;74978;37.772;-122.432;2024-03-17T00:41:58;101127.60;;;9.82;65.76
84752;BME280;74978;37.772;-122.432;2024-03-17T00:44:24;101131.11;;;10.48;64.42
84752;BME280;74978;37.772;-122.432;2024-03-17T00:46:49;101131.12;;;10.03;64.67
84752;BME280;74978;37.772;-122.432;2024-03-17T00:49:15;101140.29;;;9.86;66.59
84752;BME280;74978;37.772;-122.432;2024-03-17T00:51:41;101143.83;;;10.30;64.98
84752;BME280;74978;37.772;-122.432;2024-03-17T00:54:06;101142.99;;;9.67;66.14
84752;BME280;74978;37.772;-122.432;2024-03-17T00:56:32;101140.75;;;10.10;65.47
84752;BME280;74978;37.772;-122.432;2024-03-17T00:58:58;101144.45;;;9.79;66.39
84752;BME280;74978;37.772;-122.432;2024-03-17T01:01:23;101147.18;;;9.91;66.02
84752;BME280;74978;37.772;-122.432;2024-03-17T01:03:49;101148.27;;;9.44;67.44
84752;BME280;74978;37.772;-122.432;2024-03-17T01:06:14;101145.49;;;9.37;68.73
84752;BME280;74978;37.772;-122.432;2024-03-17T01:08:40;101146.62;;;9.45;67.83
84752;BME280;74978;37.772;-122.432;2024-03-17T01:11:05;101147.84;;;9.52;68.18
84752;BME280;74978;37.772;-122.432;2024-03-17T01:13:30;101150.36;;;9.34;68.51
84752;BME280;74978;37.772;-122.432;2024-03-17T01:15:55;101150.82;;;9.29;68.43
84752;BME280;74978;37.772;-122.432;2024-03-17T01:18:21;101150.37;;;9.26;68.09
84752;BME280;74978;37.772;-122.432;2024-03-17T01:20:47;101152.41;;;9.20;68.91
84752;BME280;74978;37.772;-122.432;2024-03-17T01:23:12;101150.07;;;9.03;68.41
84752;BME280;74978;37.772;-122.432;2024-03-17T01:25:38;101144.70;;;9.32;68.33
84752;BME280;74978;37.772;-122.432;2024-03-17T01:28:03;101150.12;;;9.02;69.89
84752;BME280;74978;37.772;-122.432;2024-03-17T01:30:28;101149.64;;;9.30;68.96
84752;BME280;74978;37.772;-122.432;2024-03-17T01:32:53;101158.52;;;9.07;69.88
84752;BME280;74978;37.772;-122.432;2024-03-17T01:35:18;101158.62;;;8.84;70.10
84752;BME280;74978;37.772;-122.432;2024-03-17T01:37:45;101159.18;;;8.81;70.60
84752;BME280;74978;37.772;-122.432;2024-03-17T01:40:10;101159.35;;;8.58;72.00
84752;BME280;74978;37.772;-122.432;2024-03-17T01:42:35;101161.60;;;8.69;72.14
84752;BME280;74978;37.772;-122.432;2024-03-17T01:45:01;101167.48;;;8.49;72.82
84752;BME280;74978;37.772;-122.432;2024-03-17T01:47:26;101160.74;;;8.44;72.75
84752;BME280;74978;37.772;-122.432;2024-03-17T01:49:53;101168.18;;;8.42;73.33
84752;BME280;74978;37.772;-122.432;2024-03-17T01:52:18;101171.94;;;8.31;73.94
84752;BME280;74978;37.772;-122.432;2024-03-17T01:54:43;101169.95;;;8.29;74.13
84752;BME280;74978;37.772;-122.432;2024-03-17T01:57:07;101174.93;;;8.23;74.58
84752;BME280;74978;37.772;-122.432;2024-03-17T01:59:33;101175.60;;;8.24;75.95
84752;BME280;74978;37.772;-122.432;2024-03-17T02:01:58;101183.24;;;8.02;76.81
84752;BME280;74978;37.772;-122.432;2024-03-17T02:04:24;101181.07;;;7.84;77.49
84752;BME280;74978;37.772;-122.432;2024-03-17T02:06:49;101187.17;;;7.93;77.08
84752;BME280;74978;37.772;-122.432;2024-03-17T02:09:14;101192.22;;;8.22;76.81
84752;BME280;74978;37.772;-122.432;2024-03-17T02:11:39;101197.22;;;8.06;77.42
84752;BME280;74978;37.772;-122.432;2024-03-17T02:14:05;101205.99;;;7.94;77.75
84752;BME280;74978;37.772;-122.432;2024-03-17T02:16:30;101202.91;;;8.22;77.84
84752;BME280;74978;37.772;-122.432;2024-03-17T02:18:56;101202.21;;;8.04;77.96
84752;BME280;74978;37.772;-122.432;2024-03-17T02:21:22;101202.87;;;7.92;77.58
84752;BME280;74978;37.772;-122.432;2024-03-17T02:23:47;101202.04;;;7.65;79.02
84752;BME280;74978;37.772;-122.432;2024-03-17T02:26:13;101217.01;;;7.88;78.94
84752;BME280;74978;37.772;-122.432;2024-03-17T02:28:40;101219.90;;;7.80;79.49
84752;BME280;74978;37.772;-122.432;2024-03-17T02:31:03;101221.13;;;7.49;79.79
84752;BME280;74978;37.772;-122.432;2024-03-17T02:33:28;101231.46;;;7.39;80.25
84752;BME280;74978;37.772;-122.432;2024-03-17T02:35:54;101228.67;;;7.69;79.80
84752;BME280;74978;37.772;-122.432;2024-03-17T02:38:19;101240.50;;;7.50;80.13
84752;BME280;74978;37.772;-122.432;2024-03-17T02:40:44;101238.68;;;7.47;80.67
84752;BME280;74978;37.772;-122.432;2024-03-17T02:43:10;101244.88;;;7.55;79.59
84752;BME280;74978;37.772;-122.432;2024-03-17T02:45:35;101245.03;;;7.54;79.58
84752;BME280;74978;37.772;-122.432;2024-03-17T02:48:01;101249.19;;;7.74;78.27
84752;BME280;74978;37.772;-122.432;2024-03-17T02:50:26;101252.36;;;7.63;77.73
84752;BME280;74978;37.772;-122.432;2024-03-17T02:52:52;101257.83;;;7.52;78.81
84752;BME280;74978;37.772;-122.432;2024-03-17T02:55:17;101253.51;;;7.87;78.08
84752;BME280;74978;37.772;-122.432;2024-03-17T02:57:42;101254.43;;;7.52;77.93
84752;BME280;74978;37.772;-122.432;2024-03-17T03:00:09;101251.85;;;7.73;77.29
84752;BME280;74978;37.772;-122.432;2024-03-17T03:02:34;101261.06;;;7.69;77.30
84752;BME280;74978;37.772;-122.432;2024-03-17T03:04:59;101252.23;;;7.72;77.61
84752;BME280;74978;37.772;-122.432;2024-03-17T03:07:24;101261.38;;;7.60;77.82
84752;BME280;74978;37.772;-122.432;2024-03-17T03:09:51;101260.58;;;7.73;77.68
84752;BME280;74978;37.772;-122.432;2024-03-17T03:12:15;101264.28;;;7.63;78.09
84752;BME280;74978;37.772;-122.432;2024-03-17T03:14:41;101269.33;;;7.68;78.25
84752;BME280;74978;37.772;-122.432;2024-03-17T03:17:10;101274.27;;;7.61;78.69
84752;BME280;74978;37.772;-122.432;2024-03-17T03:19:33;101275.87;;;7.71;77.85
84752;BME280;74978;37.772;-122.432;2024-03-17T03:21:56;101269.22;;;7.57;78.50
84752;BME280;74978;37.772;-122.432;2024-03-17T03:24:21;101269.79;;;7.57;77.33
84752;BME280;74978;37.772;-122.432;2024-03-17T03:26:47;101267.72;;;7.54;76.13
84752;BME280;74978;37.772;-122.432;2024-03-17T03:29:12;101270.28;;;7.57;77.27
84752;BME280;74978;37.772;-122.432;2024-03-17T03:31:37;101265.08;;;7.47;77.91
84752;BME280;74978;37.772;-122.432;2024-03-17T03:34:03;101262.77;;;7.56;78.28
84752;BME280;74978;37.772;-122.432;2024-03-17T03:36:28;101270.76;;;7.47;77.86
84752;BME280;74978;37.772;-122.432;2024-03-17T03:38:53;101269.85;;;7.68;78.12
84752;BME280;74978;37.772;-122.432;2024-03-17T03:41:18;101266.46;;;7.37;77.76
84752;BME280;74978;37.772;-122.432;2024-03-17T03:43:45;101265.51;;;7.47;76.28
84752;BME280;74978;37.772;-122.432;2024-03-17T03:46:09;101271.43;;;7.44;76.04
84752;BME280;74978;37.772;-122.432;2024-03-17T03:48:35;101275.48;;;7.54;75.96
84752;BME280;74978;37.772;-122.432;2024-03-17T03:51:04;101281.90;;;7.46;76.38
84752;BME280;74978;37.772;-122.432;2024-03-17T03:53:25;101291.35;;;7.43;75.87
84752;BME280;74978;37.772;-122.432;2024-03-17T03:55:51;101301.87;;;7.29;75.44
84752;BME280;74978;37.772;-122.432;2024-03-17T03:58:16;101304.22;;;7.39;75.33
84752;BME280;74978;37.772;-122.432;2024-03-17T04:00:41;101305.64;;;7.72;74.62
84752;BME280;74978;37.772;-122.432;2024-03-17T04:03:07;101311.82;;;7.35;74.29
84752;BME280;74978;37.772;-122.432;2024-03-17T04:05:32;101311.37;;;7.56;74.77
84752;BME280;74978;37.772;-122.432;2024-03-17T04:07:58;101317.34;;;7.14;75.03
84752;BME280;74978;37.772;-122.432;2024-03-17T04:10:24;101325.89;;;7.37;74.45
84752;BME280;74978;37.772;-122.432;2024-03-17T04:12:49;101330.47;;;7.39;74.48
84752;BME280;74978;37.772;-122.432;2024-03-17T04:15:15;101331.16;;;7.45;74.32
84752;BME280;74978;37.772;-122.432;2024-03-17T04:17:39;101342.14;;;7.38;74.74
84752;BME280;74978;37.772;-122.432;2024-03-17T04:20:05;101347.31;;;7.68;74.55
84752;BME280;74978;37.772;-122.432;2024-03-17T04:22:30;101352.45;;;7.32;74.42
84752;BME280;74978;37.772;-122.432;2024-03-17T04:24:55;101356.88;;;7.22;74.83
84752;BME280;74978;37.772;-122.432;2024-03-17T04:27:21;101362.31;;;7.44;74.25
84752;BME280;74978;37.772;-122.432;2024-03-17T04:29:47;101360.86;;;7.60;72.25
84752;BME280;74978;37.772;-122.432;2024-03-17T04:32:12;101364.44;;;7.53;73.90
84752;BME280;74978;37.772;-122.432;2024-03-17T04:34:37;101368.73;;;7.59;74.61
84752;BME280;74978;37.772;-122.432;2024-03-17T04:37:04;101374.70;;;7.40;73.83
84752;BME280;74978;37.772;-122.432;2024-03-17T04:39:29;101377.53;;;7.29;74.04
84752;BME280;74978;37.772;-122.432;2024-03-17T04:41:54;101375.64;;;7.90;72.43
84752;BME280;74978;37.772;-122.432;2024-03-17T04:44:19;101382.26;;;7.56;73.60
84752;BME280;74978;37.772;-122.432;2024-03-17T04:46:50;101380.78;;;7.41;73.27
84752;BME280;74978;37.772;-122.432;2024-03-17T04:49:11;101387.15;;;7.31;73.50
84752;BME280;74978;37.772;-122.432;2024-03-17T04:51:36;101391.29;;;7.34;73.43
84752;BME280;74978;37.772;-122.432;2024-03-17T04:54:02;101391.58;;;8.18;71.60
84752;BME280;74978;37.772;-122.432;2024-03-17T04:56:27;101396.24;;;7.63;72.73
84752;BME280;74978;37.772;-122.432;2024-03-17T04:58:52;101395.39;;;7.60;71.26
84752;BME280;74978;37.772;-122.432;2024-03-17T05:01:18;101397.18;;;7.69;73.59
84752;BME280;74978;37.772;-122.432;2024-03-17T05:03:44;101397.06;;;7.72;72.15
84752;BME280;74978;37.772;-122.432;2024-03-17T05:06:10;101400.56;;;7.26;73.26
84752;BME280;74978;37.772;-122.432;2024-03-17T05:08:35;101401.43;;;7.48;73.46
84752;BME280;74978;37.772;-122.432;2024-03-17T05:11:02;101400.30;;;7.60;71.82
84752;BME280;74978;37.772;-122.432;2024-03-17T05:13:27;101400.10;;;7.89;71.03
84752;BME280;74978;37.772;-122.432;2024-03-17T05:15:52;101405.87;;;7.50;71.76
84752;BME280;74978;37.772;-122.432;2024-03-17T05:18:18;101406.66;;;8.20;69.52
84752;BME280;74978;37.772;-122.432;2024-03-17T05:20:43;101412.97;;;7.35;71.74
84752;BME280;74978;37.772;-122.432;2024-03-17T05:23:09;101417.98;;;8.27;71.01
84752;BME280;74978;37.772;-122.432;2024-03-17T05:25:34;101421.70;;;8.80;68.71
84752;BME280;74978;37.772;-122.432;2024-03-17T05:28:00;101432.38;;;8.38;69.04
84752;BME280;74978;37.772;-122.432;2024-03-17T05:30:25;101434.47;;;8.58;67.50
84752;BME280;74978;37.772;-122.432;2024-03-17T05:32:51;101435.23;;;7.65;69.76
84752;BME280;74978;37.772;-122.432;2024-03-17T05:35:17;101435.51;;;7.78;71.85
84752;BME280;74978;37.772;-122.432;2024-03-17T05:37:42;101436.58;;;7.60;70.24
84752;BME280;74978;37.772;-122.432;2024-03-17T05:40:10;101440.05;;;7.42;72.24
84752;BME280;74978;37.772;-122.432;2024-03-17T05:42:33;101441.21;;;8.07;70.27
84752;BME280;74978;37.772;-122.432;2024-03-17T05:44:59;101447.17;;;7.97;70.21
84752;BME280;74978;37.772;-122.432;2024-03-17T05:47:24;101444.62;;;8.34;69.18
84752;BME280;74978;37.772;-122.432;2024-03-17T05:49:50;101445.18;;;8.60;67.41
84752;BME280;74978;37.772;-122.432;2024-03-17T05:52:15;101443.95;;;8.18;69.32
84752;BME280;74978;37.772;-122.432;2024-03-17T05:54:40;101446.97;;;7.93;69.20
84752;BME280;74978;37.772;-122.432;2024-03-17T05:57:06;101446.35;;;7.89;69.14
84752;BME280;74978;37.772;-122.432;2024-03-17T05:59:32;101447.25;;;8.05;68.51
84752;BME280;74978;37.772;-122.432;2024-03-17T06:01:57;101446.81;;;8.04;69.44
84752;BME280;74978;37.772;-122.432;2024-03-17T06:04:23;101448.74;;;7.67;71.28
84752;BME280;74978;37.772;-122.432;2024-03-17T06:06:49;101448.18;;;7.30;71.31
84752;BME280;74978;37.772;-122.432;2024-03-17T06:09:14;101451.48;;;7.29;71.11
84752;BME280;74978;37.772;-122.432;2024-03-17T06:11:39;101452.88;;;8.65;67.65
84752;BME280;74978;37.772;-122.432;2024-03-17T06:14:05;101454.48;;;10.24;62.43
84752;BME280;74978;37.772;-122.432;2024-03-17T06:16:31;101458.42;;;10.23;60.05
84752;BME280;74978;37.772;-122.432;2024-03-17T06:18:57;101461.06;;;8.73;64.63
84752;BME280;74978;37.772;-122.432;2024-03-17T06:21:22;101460.56;;;8.88;64.31
84752;BME280;74978;37.772;-122.432;2024-03-17T06:23:48;101459.48;;;8.66;64.86
84752;BME280;74978;37.772;-122.432;2024-03-17T06:26:14;101458.53;;;8.17;66.73
84752;BME280;74978;37.772;-122.432;2024-03-17T06:28:40;101457.35;;;8.47;66.48
84752;BME280;74978;37.772;-122.432;2024-03-17T06:31:05;101462.08;;;9.59;63.72
84752;BME280;74978;37.772;-122.432;2024-03-17T06:33:30;101463.31;;;8.75;64.85
84752;BME280;74978;37.772;-122.432;2024-03-17T06:35:56;101463.38;;;9.60;63.20
84752;BME280;74978;37.772;-122.432;2024-03-17T06:38:22;101464.34;;;9.69;62.26
84752;BME280;74978;37.772;-122.432;2024-03-17T06:40:49;101462.65;;;8.40;65.79
84752;BME280;74978;37.772;-122.432;2024-03-17T06:43:13;101460.61;;;8.02;68.54
84752;BME280;74978;37.772;-122.432;2024-03-17T06:45:38;101456.18;;;7.44;70.63
84752;BME280;74978;37.772;-122.432;2024-03-17T06:48:05;101453.67;;;7.73;70.53
84752;BME280;74978;37.772;-122.432;2024-03-17T06:50:30;101452.18;;;7.89;69.40
84752;BME280;74978;37.772;-122.432;2024-03-17T06:52:56;101454.93;;;8.05;68.46
84752;BME280;74978;37.772;-122.432;2024-03-17T06:55:21;101451.56;;;8.77;66.33
84752;BME280;74978;37.772;-122.432;2024-03-17T06:57:46;101451.05;;;8.01;67.73
84752;BME280;74978;37.772;-122.432;2024-03-17T07:00:15;101446.87;;;7.92;67.56
84752;BME280;74978;37.772;-122.432;2024-03-17T07:02:38;101444.12;;;8.51;65.92
84752;BME280;74978;37.772;-122.432;2024-03-17T07:05:03;101438.41;;;7.62;69.30
84752;BME280;74978;37.772;-122.432;2024-03-17T07:07:29;101440.54;;;7.43;71.35
84752;BME280;74978;37.772;-122.432;2024-03-17T07:09:54;101441.52;;;7.12;73.28
84752;BME280;74978;37.772;-122.432;2024-03-17T07:12:21;101438.47;;;6.60;73.76
84752;BME280;74978;37.772;-122.432;2024-03-17T07:14:46;101434.97;;;6.65;73.82
84752;BME280;74978;37.772;-122.432;2024-03-17T07:17:11;101434.27;;;7.39;72.58
84752;BME280;74978;37.772;-122.432;2024-03-17T07:19:36;101439.80;;;7.31;73.44
84752;BME280;74978;37.772;-122.432;2024-03-17T07:22:02;101440.02;;;7.06;74.04
84752;BME280;74978;37.772;-122.432;2024-03-17T07:24:28;101436.92;;;6.65;74.98
84752;BME280;74978;37.772;-122.432;2024-03-17T07:26:54;101438.15;;;6.93;75.25
84752;BME280;74978;37.772;-122.432;2024-03-17T07:29:18;101433.57;;;6.69;75.40
84752;BME280;74978;37.772;-122.432;2024-03-17T07:31:44;101433.64;;;6.93;74.55
84752;BME280;74978;37.772;-122.432;2024-03-17T07:34:10;101430.67;;;6.49;75.77
84752;BME280;74978;37.772;-122.432;2024-03-17T07:36:35;101433.38;;;6.93;74.78
84752;BME280;74978;37.772;-122.432;2024-03-17T07:39:00;101432.20;;;7.52;71.95
84752;BME280;74978;37.772;-122.432;2024-03-17T07:41:26;101431.93;;;7.81;69.86
84752;BME280;74978;37.772;-122.432;2024-03-17T07:43:52;101429.60;;;10.62;62.51
84752;BME280;74978;37.772;-122.432;2024-03-17T07:46:17;101431.35;;;8.78;65.09
84752;BME280;74978;37.772;-122.432;2024-03-17T07:48:44;101432.44;;;8.79;66.40
84752;BME280;74978;37.772;-122.432;2024-03-17T07:51:10;101434.24;;;7.75;67.70
84752;BME280;74978;37.772;-122.432;2024-03-17T07:53:35;101434.51;;;7.41;70.54
84752;BME280;74978;37.772;-122.432;2024-03-17T07:56:01;101436.07;;;7.56;69.46
84752;BME280;74978;37.772;-122.432;2024-03-17T07:58:26;101437.57;;;8.52;66.80
84752;BME280;74978;37.772;-122.432;2024-03-17T08:00:52;101439.46;;;8.63;66.79
84752;BME280;74978;37.772;-122.432;2024-03-17T08:03:17;101445.20;;;9.14;64.49
84752;BME280;74978;37.772;-122.432;2024-03-17T08:05:43;101444.37;;;8.41;66.63
84752;BME280;74978;37.772;-122.432;2024-03-17T08:08:08;101447.85;;;8.21;67.06
84752;BME280;74978;37.772;-122.432;2024-03-17T08:10:38;101449.25;;;8.10;67.59
84752;BME280;74978;37.772;-122.432;2024-03-17T08:12:59;101452.86;;;7.43;69.40
84752;BME280;74978;37.772;-122.432;2024-03-17T08:15:25;101451.12;;;7.80;68.84
84752;BME280;74978;37.772;-122.432;2024-03-17T08:17:51;101456.14;;;7.68;69.62
84752;BME280;74978;37.772;-122.432;2024-03-17T08:20:16;101453.85;;;8.04;68.68
84752;BME280;74978;37.772;-122.432;2024-03-17T08:22:41;101451.44;;;8.13;69.33
84752;BME280;74978;37.772;-122.432;2024-03-17T08:25:08;101454.21;;;8.24;68.06
84752;BME280;74978;37.772;-122.432;2024-03-17T08:27:32;101458.99;;;7.65;69.86
84752;BME280;74978;37.772;-122.432;2024-03-17T08:29:58;101457.50;;;8.13;67.38
84752;BME280;74978;37.772;-122.432;2024-03-17T08:32:23;101457.50;;;8.54;65.44
84752;BME280;74978;37.772;-122.432;2024-03-17T08:34:49;101457.21;;;8.25;66.92
84752;BME280;74978;37.772;-122.432;2024-03-17T08:37:14;101453.45;;;7.65;67.97
84752;BME280;74978;37.772;-122.432;2024-03-17T08:39:40;101456.65;;;7.30;69.88
84752;BME280;74978;37.772;-122.432;2024-03-17T08:42:06;101456.07;;;7.53;68.93
84752;BME280;74978;37.772;-122.432;2024-03-17T08:44:31;101461.87;;;7.17;70.40
84752;BME280;74978;37.772;-122.432;2024-03-17T08:46:57;101459.47;;;7.86;67.65
84752;BME280;74978;37.772;-122.432;2024-03-17T08:49:23;101462.67;;;7.42;69.54
84752;BME280;74978;37.772;-122.432;2024-03-17T08:51:48;101463.10;;;7.68;68.91
84752;BME280;74978;37.772;-122.432;2024-03-17T08:54:13;101467.27;;;7.64;68.56
84752;BME280;74978;37.772;-122.432;2024-03-17T08:56:39;101465.24;;;7.90;67.74
84752;BME280;74978;37.772;-122.432;2024-03-17T08:59:05;101465.62;;;8.19;66.92
84752;BME280;74978;37.772;-122.432;2024-03-17T09:01:30;101464.53;;;8.26;66.72
84752;BME280;74978;37.772;-122.432;2024-03-17T09:03:56;101464.99;;;8.49;66.08
84752;BME280;74978;37.772;-122.432;2024-03-17T09:06:21;101468.70;;;9.35;63.59
84752;BME280;74978;37.772;-122.432;2024-03-17T09:08:47;101469.47;;;9.43;62.53
84752;BME280;74978;37.772;-122.432;2024-03-17T09:11:13;101467.78;;;9.43;61.79
84752;BME280;74978;37.772;-122.432;2024-03-17T09:13:38;101468.76;;;8.13;67.18
84752;BME280;74978;37.772;-122.432;2024-03-17T09:16:03;101469.99;;;6.99;73.30
84752;BME280;74978;37.772;-122.432;2024-03-17T09:18:29;101473.37;;;7.00;72.44
84752;BME280;74978;37.772;-122.432;2024-03-17T09:20:59;101466.43;;;8.40;68.70
84752;BME280;74978;37.772;-122.432;2024-03-17T09:23:19;101466.83;;;7.57;70.18
84752;BME280;74978;37.772;-122.432;2024-03-17T09:28:10;101464.19;;;8.12;69.64
84752;BME280;74978;37.772;-122.432;2024-03-17T09:30:36;101464.11;;;7.22;71.60
84752;BME280;74978;37.772;-122.432;2024-03-17T09:33:02;101464.03;;;7.83;71.04
84752;BME280;74978;37.772;-122.432;2024-03-17T09:35:27;101460.36;;;7.31;74.18
84752;BME280;74978;37.772;-122.432;2024-03-17T09:37:53;101454.78;;;6.62;75.59
84752;BME280;74978;37.772;-122.432;2024-03-17T09:40:18;101450.54;;;6.56;76.12
84752;BME280;74978;37.772;-122.432;2024-03-17T09:42:44;101449.85;;;6.33;77.27
84752;BME280;74978;37.772;-122.432;2024-03-17T09:45:10;101452.22;;;6.31;78.83
84752;BME280;74978;37.772;-122.432;2024-03-17T09:47:36;101446.57;;;6.93;75.80
84752;BME280;74978;37.772;-122.432;2024-03-17T09:50:01;101440.94;;;6.52;76.71
84752;BME280;74978;37.772;-122.432;2024-03-17T09:52:26;101445.85;;;5.91;78.00
84752;BME280;74978;37.772;-122.432;2024-03-17T09:54:58;101444.13;;;6.06;78.61
84752;BME280;74978;37.772;-122.432;2024-03-17T09:57:18;101441.25;;;6.28;78.23
84752;BME280;74978;37.772;-122.432;2024-03-17T09:59:42;101442.71;;;6.54;76.74
84752;BME280;74978;37.772;-122.432;2024-03-17T10:02:14;101445.94;;;7.17;73.91
84752;BME280;74978;37.772;-122.432;2024-03-17T10:04:33;101443.91;;;6.28;76.71
84752;BME280;74978;37.772;-122.432;2024-03-17T10:06:59;101443.22;;;6.28;75.98
84752;BME280;74978;37.772;-122.432;2024-03-17T10:09:24;101436.68;;;6.54;76.98
84752;BME280;74978;37.772;-122.432;2024-03-17T10:11:50;101436.26;;;6.16;77.00
84752;BME280;74978;37.772;-122.432;2024-03-17T10:14:18;101433.94;;;5.95;77.04
84752;BME280;74978;37.772;-122.432;2024-03-17T10:16:41;101434.12;;;6.61;74.82
84752;BME280;74978;37.772;-122.432;2024-03-17T10:19:08;101430.33;;;6.21;75.57
84752;BME280;74978;37.772;-122.432;2024-03-17T10:21:32;101427.72;;;6.78;73.42
84752;BME280;74978;37.772;-122.432;2024-03-17T10:24:07;101428.98;;;6.62;72.96
84752;BME280;74978;37.772;-122.432;2024-03-17T10:26:24;101427.28;;;6.20;74.06
84752;BME280;74978;37.772;-122.432;2024-03-17T10:28:49;101430.32;;;6.04;74.41
84752;BME280;74978;37.772;-122.432;2024-03-17T10:31:14;101428.93;;;6.96;72.10
84752;BME280;74978;37.772;-122.432;2024-03-17T10:33:40;101428.76;;;6.12;74.42
84752;BME280;74978;37.772;-122.432;2024-03-17T10:36:06;101426.42;;;6.36;73.92
84752;BME280;74978;37.772;-122.432;2024-03-17T10:38:31;101425.80;;;6.24;73.06
84752;BME280;74978;37.772;-122.432;2024-03-17T10:40:57;101425.54;;;6.32;73.65
84752;BME280;74978;37.772;-122.432;2024-03-17T10:43:21;101421.99;;;7.39;70.55
84752;BME280;74978;37.772;-122.432;2024-03-17T10:45:47;101421.14;;;6.28;74.50
84752;BME280;74978;37.772;-122.432;2024-03-17T10:48:19;101419.52;;;7.21;69.31
84752;BME280;74978;37.772;-122.432;2024-03-17T10:50:39;101419.78;;;6.79;71.41
84752;BME280;74978;37.772;-122.432;2024-03-17T10:53:05;101418.49;;;7.01;69.68
84752;BME280;74978;37.772;-122.432;2024-03-17T10:55:35;101414.03;;;7.06;69.90
84752;BME280;74978;37.772;-122.432;2024-03-17T10:57:55;101413.44;;;6.32;72.60
84752;BME280;74978;37.772;-122.432;2024-03-17T11:00:22;101415.95;;;7.11;70.64
84752;BME280;74978;37.772;-122.432;2024-03-17T11:02:46;101411.84;;;7.80;68.95
84752;BME280;74978;37.772;-122.432;2024-03-17T11:05:18;101410.90;;;7.37;69.02
84752;BME280;74978;37.772;-122.432;2024-03-17T11:07:37;101416.22;;;9.54;63.96
84752;BME280;74978;37.772;-122.432;2024-03-17T11:10:04;101411.90;;;9.54;62.18
84752;BME280;74978;37.772;-122.432;2024-03-17T11:12:41;101414.04;;;11.13;58.73
84752;BME280;74978;37.772;-122.432;2024-03-17T11:17:20;101421.38;;;7.69;68.10
84752;BME280;74978;37.772;-122.432;2024-03-17T11:24:36;101420.26;;;8.67;64.91
84752;BME280;74978;37.772;-122.432;2024-03-17T11:29:29;101419.13;;;7.50;70.92
84752;BME280;74978;37.772;-122.432;2024-03-17T11:31:53;101420.67;;;6.40;73.31
84752;BME280;74978;37.772;-122.432;2024-03-17T11:34:33;101420.06;;;6.07;74.13
84752;BME280;74978;37.772;-122.432;2024-03-17T11:36:45;101416.34;;;6.16;74.44
84752;BME280;74978;37.772;-122.432;2024-03-17T11:39:11;101417.66;;;5.98;74.48
84752;BME280;74978;37.772;-122.432;2024-03-17T11:41:38;101416.41;;;6.35;72.89
84752;BME280;74978;37.772;-122.432;2024-03-17T11:44:13;101417.95;;;5.70;74.27
84752;BME280;74978;37.772;-122.432;2024-03-17T11:46:27;101422.22;;;6.08;75.33
84752;BME280;74978;37.772;-122.432;2024-03-17T11:48:53;101422.42;;;5.72;75.33
84752;BME280;74978;37.772;-122.432;2024-03-17T11:51:18;101419.73;;;7.03;73.19
84752;BME280;74978;37.772;-122.432;2024-03-17T11:53:44;101421.09;;;7.94;68.23
84752;BME280;74978;37.772;-122.432;2024-03-17T11:56:12;101419.31;;;6.02;74.57
84752;BME280;74978;37.772;-122.432;2024-03-17T11:58:35;101416.57;;;6.27;73.60
84752;BME280;74978;37.772;-122.432;2024-03-17T12:01:00;101418.59;;;6.15;74.05
84752;BME280;74978;37.772;-122.432;2024-03-17T12:03:26;101414.35;;;6.33;73.01
84752;BME280;74978;37.772;-122.432;2024-03-17T12:05:51;101424.50;;;5.58;74.86
84752;BME280;74978;37.772;-122.432;2024-03-17T12:08:20;101420.43;;;4.97;77.37
84752;BME280;74978;37.772;-122.432;2024-03-17T12:10:47;101422.84;;;5.75;75.83
84752;BME280;74978;37.772;-122.432;2024-03-17T12:13:12;101424.05;;;5.44;74.25
84752;BME280;74978;37.772;-122.432;2024-03-17T12:15:34;101421.23;;;6.53;71.59
84752;BME280;74978;37.772;-122.432;2024-03-17T12:17:59;101423.46;;;6.84;69.43
84752;BME280;74978;37.772;-122.432;2024-03-17T12:20:24;101433.37;;;5.94;71.19
84752;BME280;74978;37.772;-122.432;2024-03-17T12:22:50;101433.83;;;5.38;71.19
84752;BME280;74978;37.772;-122.432;2024-03-17T12:25:19;101437.70;;;6.05;69.92
84752;BME280;74978;37.772;-122.432;2024-03-17T12:27:44;101441.18;;;5.47;71.20
84752;BME280;74978;37.772;-122.432;2024-03-17T12:30:10;101440.83;;;5.05;71.90
84752;BME280;74978;37.772;-122.432;2024-03-17T12:32:31;101444.00;;;5.05;73.49